Archival Weather

Half Moon Bay

Half Moon Bay, California (KHAF)

Report from: Saturday, September 30, 2023 4:35 AM PDT
Current time: Monday, June 17, 2024 3:58 AM PDT

Current weather – Weather history – Daily summaries
Weather forecast

Present weatherMist
Temperature14.0°C (57.2°F)
Dew point14.0°C (57.2°F)
Winds 10 kts (5.1 m/s, 11.5 mph) Northwest (310°)
Visibility2 mi. (3.2 km)
Clouds Few clouds 600 ft. (183 m)
Ceiling: Broken clouds 1,000 ft. (305 m)
Overcast 1,700 ft. (518 m)
Altimeter29.79 in.Hg (1009 mB)
Relative humidity100 %
Density altitude254 ft. (77 m)
Remarks Fully automated report
Automated weather observing station with precipitation discriminator
Flight conditions Instrument Meteorological Conditions
Raw dataKHAF 301135Z AUTO 31010KT 2SM BR FEW006 BKN010 OVC017 14/14 A2979 RMK AO2
An error has occurred. This application may no longer respond until reloaded. Reload 🗙